sensor_id;sensor_type;location;lat;lon;timestamp;P1;durP1;ratioP1;P2;durP2;ratioP2
38717;SDS011;24468;52.128;9.278;2023-02-08T00:01:50;17.58;;;11.63;;
38717;SDS011;24468;52.128;9.278;2023-02-08T00:04:16;17.48;;;12.13;;
38717;SDS011;24468;52.128;9.278;2023-02-08T00:06:41;17.63;;;12.25;;
38717;SDS011;24468;52.128;9.278;2023-02-08T00:09:07;16.65;;;11.20;;
38717;SDS011;24468;52.128;9.278;2023-02-08T00:11:33;15.57;;;11.25;;
38717;SDS011;24468;52.128;9.278;2023-02-08T00:13:58;16.25;;;11.30;;
38717;SDS011;24468;52.128;9.278;2023-02-08T00:16:24;19.23;;;12.27;;
38717;SDS011;24468;52.128;9.278;2023-02-08T00:18:50;16.38;;;11.55;;
38717;SDS011;24468;52.128;9.278;2023-02-08T00:21:16;13.27;;;9.65;;
38717;SDS011;24468;52.128;9.278;2023-02-08T00:23:43;15.35;;;10.55;;
38717;SDS011;24468;52.128;9.278;2023-02-08T00:26:09;15.38;;;10.63;;
38717;SDS011;24468;52.128;9.278;2023-02-08T00:28:35;17.67;;;10.80;;
38717;SDS011;24468;52.128;9.278;2023-02-08T00:31:01;18.90;;;10.70;;
38717;SDS011;24468;52.128;9.278;2023-02-08T00:33:27;16.10;;;10.88;;
38717;SDS011;24468;52.128;9.278;2023-02-08T00:35:59;17.38;;;11.98;;
38717;SDS011;24468;52.128;9.278;2023-02-08T00:38:26;14.85;;;10.27;;
38717;SDS011;24468;52.128;9.278;2023-02-08T00:40:53;18.33;;;11.65;;
38717;SDS011;24468;52.128;9.278;2023-02-08T00:43:18;15.98;;;10.70;;
38717;SDS011;24468;52.128;9.278;2023-02-08T00:45:44;17.45;;;12.25;;
38717;SDS011;24468;52.128;9.278;2023-02-08T00:48:10;16.77;;;11.85;;
38717;SDS011;24468;52.128;9.278;2023-02-08T00:50:35;15.60;;;11.02;;
38717;SDS011;24468;52.128;9.278;2023-02-08T00:53:01;21.23;;;13.13;;
38717;SDS011;24468;52.128;9.278;2023-02-08T00:55:27;15.27;;;10.93;;
38717;SDS011;24468;52.128;9.278;2023-02-08T00:57:52;16.70;;;11.95;;
38717;SDS011;24468;52.128;9.278;2023-02-08T01:00:18;19.33;;;12.70;;
38717;SDS011;24468;52.128;9.278;2023-02-08T01:02:44;20.83;;;13.02;;
38717;SDS011;24468;52.128;9.278;2023-02-08T01:05:09;23.13;;;13.65;;
38717;SDS011;24468;52.128;9.278;2023-02-08T01:07:36;19.48;;;13.43;;
38717;SDS011;24468;52.128;9.278;2023-02-08T01:10:03;25.50;;;13.95;;
38717;SDS011;24468;52.128;9.278;2023-02-08T01:12:30;20.27;;;14.15;;
38717;SDS011;24468;52.128;9.278;2023-02-08T01:14:56;20.70;;;13.55;;
38717;SDS011;24468;52.128;9.278;2023-02-08T01:17:21;18.13;;;12.27;;
38717;SDS011;24468;52.128;9.278;2023-02-08T01:19:47;19.05;;;12.93;;
38717;SDS011;24468;52.128;9.278;2023-02-08T01:22:12;19.27;;;13.90;;
38717;SDS011;24468;52.128;9.278;2023-02-08T01:24:38;18.92;;;13.68;;
38717;SDS011;24468;52.128;9.278;2023-02-08T01:27:03;18.90;;;12.98;;
38717;SDS011;24468;52.128;9.278;2023-02-08T01:29:29;18.23;;;12.80;;
38717;SDS011;24468;52.128;9.278;2023-02-08T01:31:55;19.67;;;14.15;;
38717;SDS011;24468;52.128;9.278;2023-02-08T01:34:20;20.65;;;14.05;;
38717;SDS011;24468;52.128;9.278;2023-02-08T01:36:46;17.02;;;12.93;;
38717;SDS011;24468;52.128;9.278;2023-02-08T01:39:11;20.73;;;13.88;;
38717;SDS011;24468;52.128;9.278;2023-02-08T01:41:38;19.70;;;13.15;;
38717;SDS011;24468;52.128;9.278;2023-02-08T01:46:38;19.92;;;14.77;;
38717;SDS011;24468;52.128;9.278;2023-02-08T01:49:19;21.52;;;14.30;;
38717;SDS011;24468;52.128;9.278;2023-02-08T01:54:33;19.33;;;13.43;;
38717;SDS011;24468;52.128;9.278;2023-02-08T01:57:08;18.63;;;13.13;;
38717;SDS011;24468;52.128;9.278;2023-02-08T01:59:38;19.88;;;13.20;;
38717;SDS011;24468;52.128;9.278;2023-02-08T02:02:14;19.65;;;13.20;;
38717;SDS011;24468;52.128;9.278;2023-02-08T02:07:09;19.02;;;13.65;;
38717;SDS011;24468;52.128;9.278;2023-02-08T02:09:41;17.70;;;13.02;;
38717;SDS011;24468;52.128;9.278;2023-02-08T02:12:35;21.88;;;13.65;;
38717;SDS011;24468;52.128;9.278;2023-02-08T02:15:03;19.48;;;14.00;;
38717;SDS011;24468;52.128;9.278;2023-02-08T02:17:30;20.65;;;12.50;;
38717;SDS011;24468;52.128;9.278;2023-02-08T02:20:03;21.48;;;14.73;;
38717;SDS011;24468;52.128;9.278;2023-02-08T02:26:08;20.38;;;14.05;;
38717;SDS011;24468;52.128;9.278;2023-02-08T02:37:51;21.17;;;12.48;;
38717;SDS011;24468;52.128;9.278;2023-02-08T02:43:15;18.15;;;12.82;;
38717;SDS011;24468;52.128;9.278;2023-02-08T02:52:01;17.35;;;12.32;;
38717;SDS011;24468;52.128;9.278;2023-02-08T02:54:39;19.23;;;13.23;;
38717;SDS011;24468;52.128;9.278;2023-02-08T02:57:13;21.05;;;13.57;;
38717;SDS011;24468;52.128;9.278;2023-02-08T02:59:46;19.92;;;13.68;;
38717;SDS011;24468;52.128;9.278;2023-02-08T03:02:11;17.65;;;11.57;;
38717;SDS011;24468;52.128;9.278;2023-02-08T03:07:13;17.95;;;12.43;;
38717;SDS011;24468;52.128;9.278;2023-02-08T03:21:50;21.27;;;12.93;;
38717;SDS011;24468;52.128;9.278;2023-02-08T03:24:29;19.52;;;11.95;;
38717;SDS011;24468;52.128;9.278;2023-02-08T03:33:17;20.05;;;14.73;;
38717;SDS011;24468;52.128;9.278;2023-02-08T03:35:54;20.25;;;13.95;;
38717;SDS011;24468;52.128;9.278;2023-02-08T03:38:35;19.58;;;13.57;;
38717;SDS011;24468;52.128;9.278;2023-02-08T03:41:06;22.35;;;14.60;;
38717;SDS011;24468;52.128;9.278;2023-02-08T03:43:37;17.83;;;12.05;;
38717;SDS011;24468;52.128;9.278;2023-02-08T03:46:10;18.92;;;13.27;;
38717;SDS011;24468;52.128;9.278;2023-02-08T03:48:51;18.58;;;13.75;;
38717;SDS011;24468;52.128;9.278;2023-02-08T03:51:22;16.52;;;12.40;;
38717;SDS011;24468;52.128;9.278;2023-02-08T03:53:51;21.50;;;12.52;;
38717;SDS011;24468;52.128;9.278;2023-02-08T03:56:20;21.73;;;13.27;;
38717;SDS011;24468;52.128;9.278;2023-02-08T03:58:59;19.83;;;12.50;;
38717;SDS011;24468;52.128;9.278;2023-02-08T04:01:35;18.75;;;12.57;;
38717;SDS011;24468;52.128;9.278;2023-02-08T04:04:08;21.73;;;13.82;;
38717;SDS011;24468;52.128;9.278;2023-02-08T04:06:38;18.42;;;12.35;;
38717;SDS011;24468;52.128;9.278;2023-02-08T04:09:03;16.77;;;12.27;;
38717;SDS011;24468;52.128;9.278;2023-02-08T04:11:29;18.17;;;12.38;;
38717;SDS011;24468;52.128;9.278;2023-02-08T04:13:54;18.27;;;12.32;;
38717;SDS011;24468;52.128;9.278;2023-02-08T04:16:20;16.02;;;11.40;;
38717;SDS011;24468;52.128;9.278;2023-02-08T04:18:46;20.13;;;13.15;;
38717;SDS011;24468;52.128;9.278;2023-02-08T04:21:11;20.52;;;14.65;;
38717;SDS011;24468;52.128;9.278;2023-02-08T04:23:37;21.08;;;13.63;;
38717;SDS011;24468;52.128;9.278;2023-02-08T04:26:02;18.50;;;12.13;;
38717;SDS011;24468;52.128;9.278;2023-02-08T04:28:28;18.20;;;12.30;;
38717;SDS011;24468;52.128;9.278;2023-02-08T04:30:54;21.52;;;12.98;;
38717;SDS011;24468;52.128;9.278;2023-02-08T04:33:21;19.50;;;13.35;;
38717;SDS011;24468;52.128;9.278;2023-02-08T04:35:46;21.63;;;13.18;;
38717;SDS011;24468;52.128;9.278;2023-02-08T04:38:12;20.52;;;14.07;;
38717;SDS011;24468;52.128;9.278;2023-02-08T04:40:37;21.33;;;14.25;;
38717;SDS011;24468;52.128;9.278;2023-02-08T04:43:03;22.25;;;14.95;;
38717;SDS011;24468;52.128;9.278;2023-02-08T04:45:28;21.08;;;13.70;;
38717;SDS011;24468;52.128;9.278;2023-02-08T04:47:56;18.98;;;12.93;;
38717;SDS011;24468;52.128;9.278;2023-02-08T04:50:22;20.08;;;12.88;;
38717;SDS011;24468;52.128;9.278;2023-02-08T04:52:47;23.27;;;13.80;;
38717;SDS011;24468;52.128;9.278;2023-02-08T04:55:13;20.35;;;12.70;;
38717;SDS011;24468;52.128;9.278;2023-02-08T04:57:39;23.83;;;13.35;;
38717;SDS011;24468;52.128;9.278;2023-02-08T05:00:04;20.95;;;14.88;;
38717;SDS011;24468;52.128;9.278;2023-02-08T05:02:30;19.55;;;13.88;;
38717;SDS011;24468;52.128;9.278;2023-02-08T05:04:56;22.45;;;14.38;;
38717;SDS011;24468;52.128;9.278;2023-02-08T05:07:21;22.08;;;13.63;;
38717;SDS011;24468;52.128;9.278;2023-02-08T05:09:48;20.27;;;13.30;;
38717;SDS011;24468;52.128;9.278;2023-02-08T05:12:13;19.65;;;13.48;;
38717;SDS011;24468;52.128;9.278;2023-02-08T05:14:39;20.55;;;13.38;;
38717;SDS011;24468;52.128;9.278;2023-02-08T05:17:04;19.00;;;13.45;;
38717;SDS011;24468;52.128;9.278;2023-02-08T05:19:30;17.95;;;12.50;;
38717;SDS011;24468;52.128;9.278;2023-02-08T05:21:55;18.17;;;12.10;;
38717;SDS011;24468;52.128;9.278;2023-02-08T05:24:21;21.10;;;12.93;;
38717;SDS011;24468;52.128;9.278;2023-02-08T05:26:46;21.45;;;13.60;;
38717;SDS011;24468;52.128;9.278;2023-02-08T05:29:12;18.45;;;12.15;;
38717;SDS011;24468;52.128;9.278;2023-02-08T05:31:38;18.00;;;13.00;;
38717;SDS011;24468;52.128;9.278;2023-02-08T05:34:03;24.58;;;13.98;;
38717;SDS011;24468;52.128;9.278;2023-02-08T05:36:29;22.75;;;14.35;;
38717;SDS011;24468;52.128;9.278;2023-02-08T05:38:54;21.90;;;14.10;;
38717;SDS011;24468;52.128;9.278;2023-02-08T05:41:20;21.83;;;13.30;;
38717;SDS011;24468;52.128;9.278;2023-02-08T05:43:45;21.88;;;14.02;;
38717;SDS011;24468;52.128;9.278;2023-02-08T05:46:11;22.17;;;13.95;;
38717;SDS011;24468;52.128;9.278;2023-02-08T05:48:37;23.63;;;14.02;;
38717;SDS011;24468;52.128;9.278;2023-02-08T05:51:03;22.15;;;15.00;;
38717;SDS011;24468;52.128;9.278;2023-02-08T05:53:29;23.92;;;14.27;;
38717;SDS011;24468;52.128;9.278;2023-02-08T05:55:55;18.50;;;13.75;;
38717;SDS011;24468;52.128;9.278;2023-02-08T05:58:22;21.15;;;13.23;;
38717;SDS011;24468;52.128;9.278;2023-02-08T06:00:48;22.23;;;13.88;;
38717;SDS011;24468;52.128;9.278;2023-02-08T06:03:14;21.60;;;13.98;;
38717;SDS011;24468;52.128;9.278;2023-02-08T06:05:40;21.05;;;13.07;;
38717;SDS011;24468;52.128;9.278;2023-02-08T06:08:06;18.13;;;12.95;;
38717;SDS011;24468;52.128;9.278;2023-02-08T06:10:32;17.35;;;11.80;;
38717;SDS011;24468;52.128;9.278;2023-02-08T06:12:58;18.58;;;13.93;;
38717;SDS011;24468;52.128;9.278;2023-02-08T06:15:25;19.73;;;13.55;;
38717;SDS011;24468;52.128;9.278;2023-02-08T06:17:51;21.75;;;14.73;;
38717;SDS011;24468;52.128;9.278;2023-02-08T06:20:17;21.25;;;15.30;;
38717;SDS011;24468;52.128;9.278;2023-02-08T06:22:43;30.95;;;19.00;;
38717;SDS011;24468;52.128;9.278;2023-02-08T06:25:08;44.53;;;26.40;;
38717;SDS011;24468;52.128;9.278;2023-02-08T06:27:34;34.28;;;18.80;;
38717;SDS011;24468;52.128;9.278;2023-02-08T06:30:00;24.17;;;15.18;;
38717;SDS011;24468;52.128;9.278;2023-02-08T06:32:25;22.83;;;15.35;;
38717;SDS011;24468;52.128;9.278;2023-02-08T06:34:51;22.80;;;14.90;;
38717;SDS011;24468;52.128;9.278;2023-02-08T06:37:17;20.27;;;14.65;;
38717;SDS011;24468;52.128;9.278;2023-02-08T06:39:43;26.92;;;15.90;;
38717;SDS011;24468;52.128;9.278;2023-02-08T06:42:08;28.15;;;16.70;;
38717;SDS011;24468;52.128;9.278;2023-02-08T06:44:35;25.20;;;16.02;;
38717;SDS011;24468;52.128;9.278;2023-02-08T06:47:00;23.98;;;15.18;;
38717;SDS011;24468;52.128;9.278;2023-02-08T06:49:26;23.80;;;15.73;;
38717;SDS011;24468;52.128;9.278;2023-02-08T06:51:52;22.13;;;14.75;;
38717;SDS011;24468;52.128;9.278;2023-02-08T06:54:17;24.83;;;15.63;;
38717;SDS011;24468;52.128;9.278;2023-02-08T06:56:43;19.10;;;12.98;;
38717;SDS011;24468;52.128;9.278;2023-02-08T06:59:09;19.35;;;12.77;;
38717;SDS011;24468;52.128;9.278;2023-02-08T07:01:34;21.77;;;14.25;;
38717;SDS011;24468;52.128;9.278;2023-02-08T07:04:00;23.08;;;13.65;;
38717;SDS011;24468;52.128;9.278;2023-02-08T07:06:26;25.48;;;16.15;;
38717;SDS011;24468;52.128;9.278;2023-02-08T07:08:51;25.90;;;15.50;;
38717;SDS011;24468;52.128;9.278;2023-02-08T07:11:17;27.33;;;16.42;;
38717;SDS011;24468;52.128;9.278;2023-02-08T07:13:49;24.05;;;15.02;;
38717;SDS011;24468;52.128;9.278;2023-02-08T07:16:15;26.67;;;15.05;;
38717;SDS011;24468;52.128;9.278;2023-02-08T07:18:43;23.17;;;14.70;;
38717;SDS011;24468;52.128;9.278;2023-02-08T07:21:09;22.13;;;14.45;;
38717;SDS011;24468;52.128;9.278;2023-02-08T07:23:36;24.48;;;13.35;;
38717;SDS011;24468;52.128;9.278;2023-02-08T07:26:04;22.00;;;15.27;;
38717;SDS011;24468;52.128;9.278;2023-02-08T07:28:35;23.55;;;14.88;;
38717;SDS011;24468;52.128;9.278;2023-02-08T07:31:09;22.73;;;13.77;;
38717;SDS011;24468;52.128;9.278;2023-02-08T07:33:37;22.10;;;14.15;;
38717;SDS011;24468;52.128;9.278;2023-02-08T07:36:03;20.10;;;13.63;;
38717;SDS011;24468;52.128;9.278;2023-02-08T07:38:31;21.60;;;13.90;;
38717;SDS011;24468;52.128;9.278;2023-02-08T07:41:01;19.38;;;14.02;;
38717;SDS011;24468;52.128;9.278;2023-02-08T07:43:29;21.80;;;15.15;;
38717;SDS011;24468;52.128;9.278;2023-02-08T07:45:55;21.33;;;14.48;;
38717;SDS011;24468;52.128;9.278;2023-02-08T07:48:20;23.17;;;14.32;;
38717;SDS011;24468;52.128;9.278;2023-02-08T07:50:46;22.20;;;13.80;;
38717;SDS011;24468;52.128;9.278;2023-02-08T07:53:11;22.60;;;15.52;;
38717;SDS011;24468;52.128;9.278;2023-02-08T07:55:37;22.35;;;14.65;;
38717;SDS011;24468;52.128;9.278;2023-02-08T07:58:02;20.52;;;13.95;;
38717;SDS011;24468;52.128;9.278;2023-02-08T08:00:28;24.80;;;15.15;;
38717;SDS011;24468;52.128;9.278;2023-02-08T08:02:53;21.33;;;13.90;;
38717;SDS011;24468;52.128;9.278;2023-02-08T08:05:19;21.02;;;13.90;;
38717;SDS011;24468;52.128;9.278;2023-02-08T08:07:45;23.55;;;13.98;;
38717;SDS011;24468;52.128;9.278;2023-02-08T08:10:11;19.38;;;13.20;;
38717;SDS011;24468;52.128;9.278;2023-02-08T08:12:37;23.00;;;14.43;;
38717;SDS011;24468;52.128;9.278;2023-02-08T08:15:02;20.13;;;14.07;;
38717;SDS011;24468;52.128;9.278;2023-02-08T08:17:28;18.50;;;13.65;;
38717;SDS011;24468;52.128;9.278;2023-02-08T08:19:54;19.15;;;13.10;;
38717;SDS011;24468;52.128;9.278;2023-02-08T08:22:19;22.85;;;15.00;;
38717;SDS011;24468;52.128;9.278;2023-02-08T08:24:45;21.48;;;14.32;;
38717;SDS011;24468;52.128;9.278;2023-02-08T08:27:10;19.52;;;13.95;;
38717;SDS011;24468;52.128;9.278;2023-02-08T08:29:36;18.92;;;13.65;;
38717;SDS011;24468;52.128;9.278;2023-02-08T08:32:02;22.63;;;13.25;;
38717;SDS011;24468;52.128;9.278;2023-02-08T08:34:28;18.45;;;13.15;;
38717;SDS011;24468;52.128;9.278;2023-02-08T08:36:55;23.80;;;14.73;;
38717;SDS011;24468;52.128;9.278;2023-02-08T08:39:22;30.27;;;15.80;;
38717;SDS011;24468;52.128;9.278;2023-02-08T08:41:49;22.88;;;14.70;;
38717;SDS011;24468;52.128;9.278;2023-02-08T08:44:14;27.10;;;16.95;;
38717;SDS011;24468;52.128;9.278;2023-02-08T08:46:40;21.25;;;13.80;;
38717;SDS011;24468;52.128;9.278;2023-02-08T08:49:05;21.50;;;13.50;;
38717;SDS011;24468;52.128;9.278;2023-02-08T08:51:31;24.05;;;14.95;;
38717;SDS011;24468;52.128;9.278;2023-02-08T08:54:02;22.27;;;14.43;;
38717;SDS011;24468;52.128;9.278;2023-02-08T08:56:29;23.48;;;14.25;;
38717;SDS011;24468;52.128;9.278;2023-02-08T08:58:55;21.50;;;13.90;;
38717;SDS011;24468;52.128;9.278;2023-02-08T09:01:21;24.70;;;15.98;;
38717;SDS011;24468;52.128;9.278;2023-02-08T09:03:47;19.08;;;13.63;;
38717;SDS011;24468;52.128;9.278;2023-02-08T09:06:12;19.60;;;14.57;;
38717;SDS011;24468;52.128;9.278;2023-02-08T09:08:38;20.90;;;14.30;;
38717;SDS011;24468;52.128;9.278;2023-02-08T09:11:07;19.67;;;14.13;;
38717;SDS011;24468;52.128;9.278;2023-02-08T09:13:36;22.65;;;14.35;;
38717;SDS011;24468;52.128;9.278;2023-02-08T09:16:06;21.23;;;14.98;;
38717;SDS011;24468;52.128;9.278;2023-02-08T09:18:36;21.80;;;13.73;;
38717;SDS011;24468;52.128;9.278;2023-02-08T09:21:06;21.10;;;15.00;;
38717;SDS011;24468;52.128;9.278;2023-02-08T09:23:33;22.17;;;15.50;;
38717;SDS011;24468;52.128;9.278;2023-02-08T09:26:01;22.67;;;15.52;;
38717;SDS011;24468;52.128;9.278;2023-02-08T09:28:28;20.25;;;13.95;;
38717;SDS011;24468;52.128;9.278;2023-02-08T09:30:53;20.85;;;14.30;;
38717;SDS011;24468;52.128;9.278;2023-02-08T09:33:19;24.33;;;15.85;;
38717;SDS011;24468;52.128;9.278;2023-02-08T09:35:45;18.95;;;13.40;;
38717;SDS011;24468;52.128;9.278;2023-02-08T09:38:10;21.08;;;14.55;;
38717;SDS011;24468;52.128;9.278;2023-02-08T09:40:51;21.63;;;15.75;;
38717;SDS011;24468;52.128;9.278;2023-02-08T09:47:05;22.92;;;14.77;;
38717;SDS011;24468;52.128;9.278;2023-02-08T09:52:43;19.95;;;14.27;;
38717;SDS011;24468;52.128;9.278;2023-02-08T09:55:41;23.60;;;14.30;;
38717;SDS011;24468;52.128;9.278;2023-02-08T09:58:16;22.77;;;14.43;;
38717;SDS011;24468;52.128;9.278;2023-02-08T10:00:52;26.58;;;16.77;;
38717;SDS011;24468;52.128;9.278;2023-02-08T10:06:10;24.23;;;14.90;;
38717;SDS011;24468;52.128;9.278;2023-02-08T10:08:42;22.40;;;14.85;;
38717;SDS011;24468;52.128;9.278;2023-02-08T10:14:42;20.67;;;14.23;;
38717;SDS011;24468;52.128;9.278;2023-02-08T10:26:19;20.58;;;14.98;;
38717;SDS011;24468;52.128;9.278;2023-02-08T10:32:18;20.77;;;13.10;;
38717;SDS011;24468;52.128;9.278;2023-02-08T10:35:16;18.13;;;12.85;;
38717;SDS011;24468;52.128;9.278;2023-02-08T10:37:51;19.40;;;14.35;;
38717;SDS011;24468;52.128;9.278;2023-02-08T10:42:52;20.05;;;13.60;;
38717;SDS011;24468;52.128;9.278;2023-02-08T10:45:47;20.08;;;12.93;;
38717;SDS011;24468;52.128;9.278;2023-02-08T10:48:26;19.58;;;13.35;;
38717;SDS011;24468;52.128;9.278;2023-02-08T10:50:59;23.88;;;12.65;;
38717;SDS011;24468;52.128;9.278;2023-02-08T10:53:25;20.15;;;13.65;;
38717;SDS011;24468;52.128;9.278;2023-02-08T10:55:50;15.73;;;11.40;;
38717;SDS011;24468;52.128;9.278;2023-02-08T10:58:21;18.05;;;11.95;;
38717;SDS011;24468;52.128;9.278;2023-02-08T11:00:50;16.33;;;11.95;;
38717;SDS011;24468;52.128;9.278;2023-02-08T11:05:49;16.17;;;11.32;;
38717;SDS011;24468;52.128;9.278;2023-02-08T11:08:16;14.10;;;9.85;;
38717;SDS011;24468;52.128;9.278;2023-02-08T11:10:55;15.80;;;11.50;;
38717;SDS011;24468;52.128;9.278;2023-02-08T11:16:11;16.77;;;10.75;;
38717;SDS011;24468;52.128;9.278;2023-02-08T11:18:58;16.48;;;11.27;;
38717;SDS011;24468;52.128;9.278;2023-02-08T11:21:27;19.45;;;14.25;;
38717;SDS011;24468;52.128;9.278;2023-02-08T11:26:39;14.88;;;10.52;;
38717;SDS011;24468;52.128;9.278;2023-02-08T11:29:14;14.48;;;10.18;;
38717;SDS011;24468;52.128;9.278;2023-02-08T11:34:42;17.90;;;11.68;;
38717;SDS011;24468;52.128;9.278;2023-02-08T11:42:44;13.98;;;9.52;;
38717;SDS011;24468;52.128;9.278;2023-02-08T11:45:24;14.73;;;9.23;;
38717;SDS011;24468;52.128;9.278;2023-02-08T11:47:55;12.60;;;8.80;;
38717;SDS011;24468;52.128;9.278;2023-02-08T11:53:24;11.80;;;7.30;;
38717;SDS011;24468;52.128;9.278;2023-02-08T11:56:42;11.63;;;7.35;;
38717;SDS011;24468;52.128;9.278;2023-02-08T11:59:03;12.68;;;8.15;;
38717;SDS011;24468;52.128;9.278;2023-02-08T12:01:42;13.07;;;9.63;;
38717;SDS011;24468;52.128;9.278;2023-02-08T12:04:15;10.35;;;6.80;;
38717;SDS011;24468;52.128;9.278;2023-02-08T12:12:11;11.27;;;7.35;;
38717;SDS011;24468;52.128;9.278;2023-02-08T12:15:20;9.67;;;6.30;;
38717;SDS011;24468;52.128;9.278;2023-02-08T12:20:38;8.70;;;5.65;;
38717;SDS011;24468;52.128;9.278;2023-02-08T12:23:19;8.00;;;5.35;;
38717;SDS011;24468;52.128;9.278;2023-02-08T12:26:32;7.00;;;4.88;;
38717;SDS011;24468;52.128;9.278;2023-02-08T12:29:40;8.38;;;5.85;;
38717;SDS011;24468;52.128;9.278;2023-02-08T12:41:44;11.38;;;6.35;;
38717;SDS011;24468;52.128;9.278;2023-02-08T12:44:48;13.73;;;7.85;;
38717;SDS011;24468;52.128;9.278;2023-02-08T12:47:33;17.10;;;7.97;;
38717;SDS011;24468;52.128;9.278;2023-02-08T12:50:10;11.55;;;8.10;;
38717;SDS011;24468;52.128;9.278;2023-02-08T12:53:36;11.25;;;8.55;;
38717;SDS011;24468;52.128;9.278;2023-02-08T12:55:59;15.75;;;10.15;;
38717;SDS011;24468;52.128;9.278;2023-02-08T12:58:32;16.17;;;9.60;;
38717;SDS011;24468;52.128;9.278;2023-02-08T13:01:17;16.23;;;11.40;;
38717;SDS011;24468;52.128;9.278;2023-02-08T13:04:07;17.33;;;8.65;;
38717;SDS011;24468;52.128;9.278;2023-02-08T13:06:46;10.38;;;7.47;;
38717;SDS011;24468;52.128;9.278;2023-02-08T13:12:13;8.95;;;6.43;;
38717;SDS011;24468;52.128;9.278;2023-02-08T13:14:52;7.53;;;5.18;;
38717;SDS011;24468;52.128;9.278;2023-02-08T13:20:19;9.93;;;5.00;;
38717;SDS011;24468;52.128;9.278;2023-02-08T13:23:05;5.55;;;4.15;;
38717;SDS011;24468;52.128;9.278;2023-02-08T13:25:42;6.35;;;4.53;;
38717;SDS011;24468;52.128;9.278;2023-02-08T13:28:11;6.43;;;4.22;;
38717;SDS011;24468;52.128;9.278;2023-02-08T13:30:45;6.30;;;4.32;;
38717;SDS011;24468;52.128;9.278;2023-02-08T13:33:22;6.80;;;4.45;;
38717;SDS011;24468;52.128;9.278;2023-02-08T13:36:00;5.22;;;4.03;;
38717;SDS011;24468;52.128;9.278;2023-02-08T13:38:30;6.63;;;4.50;;
38717;SDS011;24468;52.128;9.278;2023-02-08T13:41:03;4.95;;;3.97;;
38717;SDS011;24468;52.128;9.278;2023-02-08T13:43:54;6.30;;;3.85;;
38717;SDS011;24468;52.128;9.278;2023-02-08T13:46:38;6.25;;;4.40;;
38717;SDS011;24468;52.128;9.278;2023-02-08T13:49:39;6.82;;;5.18;;
38717;SDS011;24468;52.128;9.278;2023-02-08T13:52:44;7.45;;;5.70;;
38717;SDS011;24468;52.128;9.278;2023-02-08T13:57:55;8.85;;;6.40;;
38717;SDS011;24468;52.128;9.278;2023-02-08T14:05:49;7.60;;;5.32;;
38717;SDS011;24468;52.128;9.278;2023-02-08T14:11:01;9.65;;;5.47;;
38717;SDS011;24468;52.128;9.278;2023-02-08T14:13:52;9.15;;;6.60;;
38717;SDS011;24468;52.128;9.278;2023-02-08T14:18:56;7.03;;;5.07;;
38717;SDS011;24468;52.128;9.278;2023-02-08T14:21:44;9.45;;;5.38;;
38717;SDS011;24468;52.128;9.278;2023-02-08T14:24:45;8.07;;;5.63;;
38717;SDS011;24468;52.128;9.278;2023-02-08T14:27:28;8.57;;;6.15;;
38717;SDS011;24468;52.128;9.278;2023-02-08T14:32:46;8.35;;;5.07;;
38717;SDS011;24468;52.128;9.278;2023-02-08T14:35:21;9.43;;;6.38;;
38717;SDS011;24468;52.128;9.278;2023-02-08T14:38:30;10.27;;;6.75;;
38717;SDS011;24468;52.128;9.278;2023-02-08T14:40:56;9.02;;;6.13;;
38717;SDS011;24468;52.128;9.278;2023-02-08T14:43:28;10.70;;;5.97;;
38717;SDS011;24468;52.128;9.278;2023-02-08T14:49:09;10.95;;;5.80;;
38717;SDS011;24468;52.128;9.278;2023-02-08T14:51:42;6.95;;;5.38;;
38717;SDS011;24468;52.128;9.278;2023-02-08T14:57:24;8.38;;;5.38;;
38717;SDS011;24468;52.128;9.278;2023-02-08T14:59:57;8.60;;;4.90;;
38717;SDS011;24468;52.128;9.278;2023-02-08T15:02:26;6.13;;;4.60;;
38717;SDS011;24468;52.128;9.278;2023-02-08T15:04:56;6.45;;;4.28;;
38717;SDS011;24468;52.128;9.278;2023-02-08T15:10:10;7.38;;;4.55;;
38717;SDS011;24468;52.128;9.278;2023-02-08T15:12:42;7.50;;;4.38;;
38717;SDS011;24468;52.128;9.278;2023-02-08T15:15:21;6.25;;;4.57;;
38717;SDS011;24468;52.128;9.278;2023-02-08T15:18:01;7.97;;;4.40;;
38717;SDS011;24468;52.128;9.278;2023-02-08T15:20:29;6.68;;;4.68;;
38717;SDS011;24468;52.128;9.278;2023-02-08T15:23:02;6.57;;;4.30;;
38717;SDS011;24468;52.128;9.278;2023-02-08T15:25:31;7.38;;;5.43;;
38717;SDS011;24468;52.128;9.278;2023-02-08T15:28:02;6.40;;;5.10;;
38717;SDS011;24468;52.128;9.278;2023-02-08T15:33:14;5.57;;;3.92;;
38717;SDS011;24468;52.128;9.278;2023-02-08T15:35:42;7.00;;;4.93;;
38717;SDS011;24468;52.128;9.278;2023-02-08T15:38:12;5.50;;;4.07;;
38717;SDS011;24468;52.128;9.278;2023-02-08T15:40:58;5.85;;;4.10;;
38717;SDS011;24468;52.128;9.278;2023-02-08T15:43:36;7.60;;;4.03;;
38717;SDS011;24468;52.128;9.278;2023-02-08T15:46:04;6.38;;;3.45;;
38717;SDS011;24468;52.128;9.278;2023-02-08T15:48:44;5.50;;;3.80;;
38717;SDS011;24468;52.128;9.278;2023-02-08T15:51:11;9.02;;;5.63;;
38717;SDS011;24468;52.128;9.278;2023-02-08T15:53:48;14.95;;;6.45;;
38717;SDS011;24468;52.128;9.278;2023-02-08T15:56:18;12.23;;;6.43;;
38717;SDS011;24468;52.128;9.278;2023-02-08T15:58:55;13.07;;;7.35;;
38717;SDS011;24468;52.128;9.278;2023-02-08T16:01:24;18.98;;;9.43;;
38717;SDS011;24468;52.128;9.278;2023-02-08T16:03:50;16.17;;;9.32;;
38717;SDS011;24468;52.128;9.278;2023-02-08T16:06:25;15.57;;;8.30;;
38717;SDS011;24468;52.128;9.278;2023-02-08T16:08:58;10.25;;;6.82;;
38717;SDS011;24468;52.128;9.278;2023-02-08T16:11:30;14.93;;;8.38;;
38717;SDS011;24468;52.128;9.278;2023-02-08T16:14:00;15.13;;;8.57;;
38717;SDS011;24468;52.128;9.278;2023-02-08T16:19:04;18.52;;;10.73;;
38717;SDS011;24468;52.128;9.278;2023-02-08T16:21:44;20.85;;;11.23;;
38717;SDS011;24468;52.128;9.278;2023-02-08T16:29:31;14.48;;;8.32;;
38717;SDS011;24468;52.128;9.278;2023-02-08T16:34:50;12.57;;;7.13;;
38717;SDS011;24468;52.128;9.278;2023-02-08T16:37:26;12.45;;;7.32;;
38717;SDS011;24468;52.128;9.278;2023-02-08T16:39:56;10.05;;;5.60;;
38717;SDS011;24468;52.128;9.278;2023-02-08T16:42:42;7.47;;;3.20;;
38717;SDS011;24468;52.128;9.278;2023-02-08T16:47:52;7.28;;;4.43;;
38717;SDS011;24468;52.128;9.278;2023-02-08T16:50:21;7.10;;;3.95;;
38717;SDS011;24468;52.128;9.278;2023-02-08T16:52:51;10.07;;;4.53;;
38717;SDS011;24468;52.128;9.278;2023-02-08T16:55:26;8.85;;;5.22;;
38717;SDS011;24468;52.128;9.278;2023-02-08T16:57:56;8.38;;;5.65;;
38717;SDS011;24468;52.128;9.278;2023-02-08T17:00:32;11.52;;;7.70;;
38717;SDS011;24468;52.128;9.278;2023-02-08T17:02:59;15.07;;;9.35;;
38717;SDS011;24468;52.128;9.278;2023-02-08T17:05:29;15.98;;;9.35;;
38717;SDS011;24468;52.128;9.278;2023-02-08T17:07:59;9.95;;;6.85;;
38717;SDS011;24468;52.128;9.278;2023-02-08T17:10:26;11.93;;;6.93;;
38717;SDS011;24468;52.128;9.278;2023-02-08T17:12:54;10.20;;;5.93;;
38717;SDS011;24468;52.128;9.278;2023-02-08T17:15:21;11.45;;;5.72;;
38717;SDS011;24468;52.128;9.278;2023-02-08T17:17:48;7.68;;;5.20;;
38717;SDS011;24468;52.128;9.278;2023-02-08T17:20:22;7.35;;;4.90;;
38717;SDS011;24468;52.128;9.278;2023-02-08T17:22:54;8.07;;;5.15;;
38717;SDS011;24468;52.128;9.278;2023-02-08T17:25:22;7.97;;;5.03;;
38717;SDS011;24468;52.128;9.278;2023-02-08T17:27:49;9.95;;;5.65;;
38717;SDS011;24468;52.128;9.278;2023-02-08T17:30:23;9.80;;;5.35;;
38717;SDS011;24468;52.128;9.278;2023-02-08T17:32:53;8.23;;;5.45;;